Time;durP1;ratioP1;P1;durP2;ratioP2;P2;SDS_P1;SDS_P2;PMS_P1;PMS_P2;Temp;Humidity;BMP_temperature;BMP_pressure;BME280_temperature;BME280_humidity;BME280_pressure;Samples;Min_cycle;Max_cycle;Signal;HPM_P1;HPM_P2
2021/08/12 00:01:16;;;;;;;10.68;7.13;;;18.00;82.70;;;;;;5075917;28;20015;-77
2021/08/12 00:03:42;;;;;;;8.35;5.45;;;18.00;82.70;;;;;;5075075;28;20028;-77
2021/08/12 00:06:08;;;;;;;9.75;6.43;;;17.90;82.50;;;;;;5080995;28;20488;-77
2021/08/12 00:08:33;;;;;;;9.45;6.82;;;17.90;82.40;;;;;;5054918;28;20050;-78
2021/08/12 00:10:59;;;;;;;14.48;7.50;;;17.90;82.40;;;;;;5071993;28;20078;-78
2021/08/12 00:13:25;;;;;;;10.57;6.45;;;17.80;82.50;;;;;;5072607;28;20036;-79
2021/08/12 00:15:51;;;;;;;8.93;6.10;;;17.80;82.50;;;;;;5054616;28;20104;-79
2021/08/12 00:18:17;;;;;;;10.98;6.03;;;17.80;82.70;;;;;;5072579;28;20025;-77
2021/08/12 00:20:43;;;;;;;10.32;6.82;;;17.80;83.30;;;;;;5072091;28;20024;-77
2021/08/12 00:23:08;;;;;;;10.05;6.05;;;17.80;83.40;;;;;;5054160;28;20028;-78
2021/08/12 00:25:34;;;;;;;10.35;7.28;;;17.80;83.30;;;;;;5072252;28;20100;-78
2021/08/12 00:28:00;;;;;;;10.00;7.28;;;17.80;83.10;;;;;;5054522;28;20036;-78
2021/08/12 00:30:25;;;;;;;14.32;7.57;;;17.80;83.30;;;;;;5071810;28;20041;-78
2021/08/12 00:32:51;;;;;;;11.25;7.65;;;17.80;83.50;;;;;;5054748;28;20017;-78
2021/08/12 00:35:16;;;;;;;11.50;6.80;;;17.70;83.60;;;;;;5075976;28;20838;-79
2021/08/12 00:37:42;;;;;;;12.15;8.02;;;17.70;84.30;;;;;;5076079;28;20027;-78
2021/08/12 00:40:08;;;;;;;13.80;8.27;;;17.70;83.80;;;;;;5058475;28;20415;-78
2021/08/12 00:42:34;;;;;;;11.23;7.43;;;17.60;83.60;;;;;;5076306;28;20029;-79
2021/08/12 00:45:00;;;;;;;10.73;6.70;;;17.60;83.80;;;;;;5076735;28;20028;-78
2021/08/12 00:47:26;;;;;;;10.88;7.20;;;17.60;84.00;;;;;;5061968;28;20024;-80
2021/08/12 00:49:51;;;;;;;12.07;7.97;;;17.60;84.00;;;;;;5070725;28;20056;-79
2021/08/12 00:52:18;;;;;;;11.38;6.85;;;17.60;84.30;;;;;;5094475;28;20059;-78
2021/08/12 00:54:44;;;;;;;9.73;6.28;;;17.60;84.20;;;;;;5057804;28;20027;-78
2021/08/12 00:57:10;;;;;;;11.02;7.68;;;17.60;84.50;;;;;;5057528;28;20016;-79
2021/08/12 00:59:37;;;;;;;12.13;7.57;;;17.60;84.80;;;;;;5075512;28;20371;-79
2021/08/12 01:02:12;;;;;;;12.68;8.32;;;17.60;84.50;;;;;;5075943;28;20035;-79
2021/08/12 01:04:42;;;;;;;13.07;9.00;;;17.50;84.30;;;;;;5075299;28;20032;-79
2021/08/12 01:07:13;;;;;;;12.25;8.77;;;17.40;84.20;;;;;;5057342;28;20021;-79
2021/08/12 01:09:47;;;;;;;11.80;8.25;;;17.40;84.50;;;;;;5058415;28;20028;-77
2021/08/12 01:12:20;;;;;;;12.23;8.85;;;17.40;84.70;;;;;;5070210;28;20096;-77
2021/08/12 01:14:48;;;;;;;13.45;9.05;;;17.40;84.80;;;;;;5089046;28;20036;-76
2021/08/12 01:17:21;;;;;;;12.68;8.93;;;17.40;84.90;;;;;;5090451;28;20103;-77
2021/08/12 01:20:09;;;;;;;10.73;7.60;;;17.40;85.20;;;;;;5083319;28;20047;-78
2021/08/12 01:22:41;;;;;;;14.02;9.07;;;17.40;85.40;;;;;;5057675;28;20036;-79
2021/08/12 01:25:13;;;;;;;13.27;8.88;;;17.40;85.50;;;;;;5057223;28;20059;-77
2021/08/12 01:27:42;;;;;;;13.32;9.50;;;17.30;85.30;;;;;;5075284;28;20027;-78
2021/08/12 01:30:14;;;;;;;13.23;8.98;;;17.30;85.30;;;;;;5056857;28;20025;-78
2021/08/12 01:32:46;;;;;;;15.27;10.00;;;17.30;85.20;;;;;;5075168;28;20052;-77
2021/08/12 01:35:15;;;;;;;13.98;8.82;;;17.30;85.30;;;;;;5073597;28;20033;-77
2021/08/12 01:37:47;;;;;;;15.77;9.60;;;17.30;85.40;;;;;;5075493;28;20020;-78
2021/08/12 01:40:16;;;;;;;13.45;9.57;;;17.30;85.50;;;;;;5058556;28;20384;-78
2021/08/12 01:42:44;;;;;;;14.45;11.43;;;17.30;85.50;;;;;;5088752;28;20035;-78
2021/08/12 01:45:10;;;;;;;14.60;9.50;;;17.20;85.60;;;;;;5075146;28;20028;-78
2021/08/12 01:47:38;;;;;;;13.48;9.80;;;17.20;85.60;;;;;;5078037;28;20020;-77
2021/08/12 01:50:05;;;;;;;13.18;10.07;;;17.20;85.70;;;;;;5074881;28;20058;-79
2021/08/12 01:52:34;;;;;;;13.18;9.80;;;17.20;85.60;;;;;;5098297;28;20036;-78
2021/08/12 01:54:59;;;;;;;13.63;10.02;;;17.20;85.70;;;;;;5072081;28;20047;-77
2021/08/12 01:57:26;;;;;;;12.82;9.27;;;17.10;85.80;;;;;;5075828;28;20021;-77
2021/08/12 01:59:53;;;;;;;13.70;8.93;;;17.10;86.00;;;;;;5057332;28;20548;-78
2021/08/12 02:02:19;;;;;;;13.57;10.38;;;17.10;86.30;;;;;;5056862;28;20067;-78
2021/08/12 02:04:46;;;;;;;12.48;9.07;;;17.20;86.40;;;;;;5075073;28;20032;-78
2021/08/12 02:07:12;;;;;;;11.43;7.97;;;17.10;86.20;;;;;;5059034;28;20028;-77
2021/08/12 02:09:38;;;;;;;13.50;8.77;;;17.20;86.30;;;;;;5088279;28;20028;-79
2021/08/12 02:12:04;;;;;;;12.90;9.45;;;17.20;86.60;;;;;;5092187;28;20088;-78
2021/08/12 02:14:32;;;;;;;11.10;8.70;;;17.20;86.30;;;;;;5056632;28;20476;-79
2021/08/12 02:16:58;;;;;;;12.88;8.75;;;17.10;86.20;;;;;;5056677;28;20351;-78
2021/08/12 02:19:24;;;;;;;11.57;8.60;;;17.10;86.50;;;;;;5056292;28;20120;-79
2021/08/12 02:21:58;;;;;;;14.13;9.95;;;17.10;87.00;;;;;;5074624;28;20096;-79
2021/08/12 02:24:42;;;;;;;13.85;10.10;;;17.10;87.10;;;;;;5056135;28;20016;-78
2021/08/12 02:27:19;;;;;;;13.95;9.23;;;17.10;87.10;;;;;;5057643;28;20033;-77
2021/08/12 02:29:47;;;;;;;13.98;8.85;;;17.10;87.20;;;;;;5065973;28;20028;-77
2021/08/12 02:32:13;;;;;;;8.95;6.43;;;17.10;87.90;;;;;;5077813;28;20029;-77
2021/08/12 02:34:43;;;;;;;10.95;7.25;;;17.10;87.20;;;;;;5074388;28;20031;-78
2021/08/12 02:37:12;;;;;;;12.82;8.05;;;17.10;87.70;;;;;;5073555;28;20058;-78
2021/08/12 02:39:40;;;;;;;10.88;7.45;;;17.20;88.00;;;;;;5055813;28;20123;-78
2021/08/12 02:42:08;;;;;;;11.65;7.97;;;17.10;87.60;;;;;;5055497;28;20115;-79
2021/08/12 02:44:35;;;;;;;12.40;8.55;;;17.20;87.70;;;;;;5073730;28;20048;-79
2021/08/12 02:47:03;;;;;;;19.25;8.45;;;17.10;87.70;;;;;;5055711;28;20464;-79
2021/08/12 02:49:31;;;;;;;12.38;8.00;;;17.20;88.40;;;;;;5073288;28;20095;-78
2021/08/12 02:51:59;;;;;;;15.13;9.93;;;17.20;87.70;;;;;;5055447;28;20035;-78
2021/08/12 02:54:27;;;;;;;13.85;9.43;;;17.20;87.50;;;;;;5055232;28;20027;-78
2021/08/12 02:56:53;;;;;;;15.02;9.80;;;17.10;87.30;;;;;;5054243;28;20025;-78
2021/08/12 02:59:20;;;;;;;14.25;9.38;;;17.10;87.50;;;;;;5055156;28;20021;-78
2021/08/12 03:01:46;;;;;;;11.98;8.05;;;17.10;87.40;;;;;;5055479;28;20073;-77
2021/08/12 03:04:12;;;;;;;16.77;11.15;;;17.10;87.30;;;;;;5073160;28;20028;-77
2021/08/12 03:06:39;;;;;;;14.75;10.23;;;17.10;87.30;;;;;;5074126;28;20040;-77
2021/08/12 03:09:06;;;;;;;15.98;11.13;;;17.00;87.30;;;;;;5088232;28;20028;-77
2021/08/12 03:11:33;;;;;;;17.55;12.55;;;17.00;87.10;;;;;;5064275;28;20078;-77
2021/08/12 03:14:00;;;;;;;15.65;10.68;;;17.00;87.20;;;;;;5091622;28;20032;-77
2021/08/12 03:16:26;;;;;;;15.35;11.45;;;17.00;87.50;;;;;;5077218;28;20024;-78
2021/08/12 03:18:53;;;;;;;19.80;13.13;;;17.00;87.70;;;;;;5072176;28;20452;-76
2021/08/12 03:21:19;;;;;;;16.85;12.15;;;17.00;87.80;;;;;;5073174;28;20103;-78
2021/08/12 03:23:45;;;;;;;15.52;11.93;;;17.00;87.70;;;;;;5073154;28;20115;-77
2021/08/12 03:26:11;;;;;;;15.85;12.32;;;17.00;87.60;;;;;;5071644;28;20175;-76
2021/08/12 03:28:38;;;;;;;16.13;12.10;;;16.90;87.40;;;;;;5087941;28;20005;-77
2021/08/12 03:31:03;;;;;;;16.45;13.05;;;16.90;87.40;;;;;;5088045;28;20107;-77
2021/08/12 03:33:31;;;;;;;19.13;13.48;;;16.80;87.60;;;;;;5076676;28;20492;-78
2021/08/12 03:35:57;;;;;;;17.35;11.77;;;16.80;87.60;;;;;;5071964;28;20025;-77
2021/08/12 03:38:23;;;;;;;17.17;11.90;;;16.80;87.70;;;;;;5075954;28;20518;-76
2021/08/12 03:40:49;;;;;;;16.55;12.40;;;16.80;88.00;;;;;;5067263;28;20048;-76
2021/08/12 03:43:15;;;;;;;17.80;12.20;;;16.90;88.00;;;;;;5092755;28;20032;-77
2021/08/12 03:45:41;;;;;;;15.88;12.07;;;16.90;87.70;;;;;;5071344;28;20047;-78
2021/08/12 03:48:06;;;;;;;17.10;12.32;;;16.80;87.40;;;;;;5074274;28;20024;-78
2021/08/12 03:50:32;;;;;;;15.10;11.07;;;16.80;87.50;;;;;;5056965;28;20066;-77
2021/08/12 03:52:57;;;;;;;15.77;10.63;;;16.80;87.40;;;;;;5054842;28;20036;-78
2021/08/12 03:55:23;;;;;;;15.18;10.85;;;16.70;87.20;;;;;;5072949;28;20438;-77
2021/08/12 03:57:49;;;;;;;16.35;11.95;;;16.70;87.20;;;;;;5055191;28;20020;-77
2021/08/12 04:00:15;;;;;;;18.85;13.27;;;16.60;87.20;;;;;;5054554;28;20377;-76
2021/08/12 04:02:41;;;;;;;20.60;13.45;;;16.60;87.50;;;;;;5071240;28;20392;-76
2021/08/12 04:05:07;;;;;;;16.48;11.73;;;16.60;87.60;;;;;;5072057;28;20148;-76
2021/08/12 04:07:33;;;;;;;17.77;12.73;;;16.60;87.70;;;;;;5072307;28;20016;-77
2021/08/12 04:09:59;;;;;;;17.98;12.30;;;16.60;87.80;;;;;;5058567;28;20027;-77
2021/08/12 04:12:24;;;;;;;18.33;12.15;;;16.60;88.00;;;;;;5058047;28;20025;-77
2021/08/12 04:14:50;;;;;;;16.67;12.48;;;16.60;88.20;;;;;;5058167;28;20493;-76
2021/08/12 04:17:16;;;;;;;18.10;12.00;;;16.50;88.40;;;;;;5076107;28;20477;-77
2021/08/12 04:19:42;;;;;;;16.73;11.38;;;16.50;88.40;;;;;;5058195;28;20013;-77
2021/08/12 04:22:08;;;;;;;16.17;11.40;;;16.50;88.40;;;;;;5075923;28;20052;-77
2021/08/12 04:24:34;;;;;;;15.05;10.80;;;16.60;88.60;;;;;;5076097;28;20542;-78
2021/08/12 04:27:00;;;;;;;15.25;10.57;;;16.60;88.50;;;;;;5074941;28;20070;-78
2021/08/12 04:29:26;;;;;;;15.88;11.65;;;16.60;88.30;;;;;;5076163;28;20033;-78
2021/08/12 04:31:52;;;;;;;17.55;12.55;;;16.60;88.20;;;;;;5059868;28;20384;-77
2021/08/12 04:34:17;;;;;;;16.08;11.63;;;16.50;88.20;;;;;;5075708;28;20017;-77
2021/08/12 04:36:43;;;;;;;15.73;11.57;;;16.50;88.20;;;;;;5075943;28;20449;-78
2021/08/12 04:39:09;;;;;;;17.20;11.35;;;16.50;88.10;;;;;;5075145;28;20052;-78
2021/08/12 04:41:35;;;;;;;16.02;10.13;;;16.50;88.20;;;;;;5058162;28;20103;-79
2021/08/12 04:44:00;;;;;;;17.70;13.40;;;16.50;88.20;;;;;;5058769;28;20024;-78
2021/08/12 04:46:26;;;;;;;15.48;11.93;;;16.50;88.60;;;;;;5058724;28;20457;-77
2021/08/12 04:48:52;;;;;;;19.58;12.15;;;16.60;88.70;;;;;;5072086;28;20021;-78
2021/08/12 04:51:17;;;;;;;16.58;12.35;;;16.60;88.60;;;;;;5075826;28;20024;-78
2021/08/12 04:53:43;;;;;;;16.55;12.23;;;16.60;88.40;;;;;;5076798;28;20027;-77
2021/08/12 04:56:09;;;;;;;18.92;11.77;;;16.60;88.50;;;;;;5057977;28;20553;-77
2021/08/12 04:58:34;;;;;;;13.55;10.05;;;16.60;88.50;;;;;;5076099;28;20032;-78
2021/08/12 05:01:00;;;;;;;14.30;9.45;;;16.70;88.40;;;;;;5058367;28;20380;-78
2021/08/12 05:03:25;;;;;;;15.98;10.50;;;16.70;88.50;;;;;;5076737;28;20476;-77
2021/08/12 05:06:03;;;;;;;16.63;11.75;;;16.70;88.50;;;;;;5072589;28;20032;-76
2021/08/12 05:08:30;;;;;;;10.77;8.55;;;16.70;88.50;;;;;;5082024;28;20021;-77
2021/08/12 05:10:55;;;;;;;16.27;11.57;;;16.70;88.40;;;;;;5066596;28;20035;-77
2021/08/12 05:13:21;;;;;;;12.95;8.57;;;16.70;88.70;;;;;;5082938;28;20103;-78
2021/08/12 05:15:47;;;;;;;15.73;10.50;;;16.70;88.40;;;;;;5059537;28;20063;-76
2021/08/12 05:18:13;;;;;;;14.38;10.35;;;16.70;88.30;;;;;;5057823;28;20534;-76
2021/08/12 05:20:38;;;;;;;15.38;10.73;;;16.80;88.30;;;;;;5057078;28;20032;-77
2021/08/12 05:23:04;;;;;;;16.15;11.88;;;16.80;88.30;;;;;;5057777;28;20468;-77
2021/08/12 05:25:30;;;;;;;16.85;11.48;;;16.90;88.20;;;;;;5075833;28;20369;-77
2021/08/12 05:27:56;;;;;;;14.07;9.50;;;17.00;88.40;;;;;;5059886;28;20468;-76
2021/08/12 05:30:22;;;;;;;14.95;11.27;;;17.10;88.00;;;;;;5070125;28;20037;-76
2021/08/12 05:32:48;;;;;;;15.35;10.98;;;17.20;88.20;;;;;;5094247;28;20088;-77
2021/08/12 05:35:14;;;;;;;15.32;10.85;;;17.30;87.70;;;;;;5085507;28;20032;-77
2021/08/12 05:37:40;;;;;;;14.60;10.85;;;17.40;87.20;;;;;;5076139;28;20078;-77
2021/08/12 05:40:06;;;;;;;14.00;9.70;;;17.50;86.80;;;;;;5075235;28;20029;-77
2021/08/12 05:42:32;;;;;;;15.63;10.82;;;17.50;86.40;;;;;;5074282;28;20476;-77
2021/08/12 05:44:58;;;;;;;15.25;11.60;;;17.60;86.00;;;;;;5074487;28;20073;-78
2021/08/12 05:47:24;;;;;;;12.45;9.75;;;17.70;85.90;;;;;;5075089;28;20023;-76
2021/08/12 05:49:49;;;;;;;14.07;10.18;;;17.80;85.40;;;;;;5057563;28;20033;-77
2021/08/12 05:52:15;;;;;;;16.98;12.77;;;18.00;85.30;;;;;;5084966;28;20092;-77
2021/08/12 05:54:41;;;;;;;13.05;10.55;;;18.10;85.70;;;;;;5068606;28;20021;-78
2021/08/12 05:57:06;;;;;;;14.63;10.68;;;18.20;85.10;;;;;;5075359;28;20029;-76
2021/08/12 05:59:32;;;;;;;15.95;11.75;;;18.20;84.80;;;;;;5074644;28;20052;-77
2021/08/12 06:01:58;;;;;;;15.82;12.30;;;18.20;84.60;;;;;;5056781;28;20035;-77
2021/08/12 06:04:24;;;;;;;15.48;10.98;;;18.20;84.60;;;;;;5056707;28;20085;-77
2021/08/12 06:06:50;;;;;;;12.88;9.88;;;18.20;84.50;;;;;;5078604;28;20068;-78
2021/08/12 06:09:15;;;;;;;15.88;10.15;;;18.30;84.70;;;;;;5086760;28;20499;-76
2021/08/12 06:11:41;;;;;;;14.23;9.93;;;18.30;84.90;;;;;;5066711;28;20028;-77
2021/08/12 06:14:07;;;;;;;14.00;10.48;;;18.30;85.00;;;;;;5032543;28;20033;-77
2021/08/12 06:16:33;;;;;;;13.32;10.98;;;18.40;84.80;;;;;;5037720;28;20013;-77
2021/08/12 06:18:58;;;;;;;14.98;11.00;;;18.50;84.30;;;;;;5050313;28;20036;-77
2021/08/12 06:21:24;;;;;;;19.85;10.88;;;18.70;83.90;;;;;;5054003;28;20055;-76
2021/08/12 06:23:51;;;;;;;16.23;12.63;;;18.90;83.10;;;;;;5036314;28;20032;-77
2021/08/12 06:26:16;;;;;;;19.20;15.18;;;19.00;82.10;;;;;;5054477;28;20139;-77
2021/08/12 06:28:43;;;;;;;14.73;11.80;;;19.00;80.10;;;;;;5035920;28;20047;-77
2021/08/12 06:31:09;;;;;;;12.68;9.10;;;19.00;80.00;;;;;;5053549;28;20024;-77
2021/08/12 06:33:34;;;;;;;8.77;5.60;;;19.10;79.20;;;;;;5053605;28;20029;-75
2021/08/12 06:36:07;;;;;;;7.95;4.45;;;19.20;78.60;;;;;;5054184;28;20488;-78
2021/08/12 06:38:34;;;;;;;9.13;5.95;;;19.30;78.20;;;;;;5036114;28;20104;-77
2021/08/12 06:41:00;;;;;;;13.48;10.02;;;19.40;77.50;;;;;;5035645;28;20040;-77
2021/08/12 06:43:26;;;;;;;10.88;7.05;;;19.50;77.00;;;;;;5053409;28;20025;-78
2021/08/12 06:46:03;;;;;;;9.80;6.30;;;19.60;76.80;;;;;;5036007;28;20124;-78
2021/08/12 06:48:29;;;;;;;10.65;7.80;;;19.80;76.70;;;;;;5035685;28;20104;-77
2021/08/12 06:50:55;;;;;;;7.93;5.68;;;19.90;76.30;;;;;;5035979;28;20045;-77
2021/08/12 06:53:20;;;;;;;9.75;6.35;;;19.90;75.90;;;;;;5035994;28;20035;-77
2021/08/12 06:55:46;;;;;;;10.75;7.00;;;20.00;75.60;;;;;;5053785;28;20036;-77
2021/08/12 06:58:12;;;;;;;14.73;10.65;;;20.10;74.50;;;;;;5054319;28;20373;-77
2021/08/12 07:00:37;;;;;;;14.50;10.38;;;20.10;75.00;;;;;;5057715;28;20021;-77
2021/08/12 07:03:03;;;;;;;9.02;5.72;;;20.10;74.50;;;;;;5051645;28;20033;-78
2021/08/12 07:05:28;;;;;;;18.98;12.40;;;20.10;74.00;;;;;;5042240;28;20037;-76
2021/08/12 07:07:54;;;;;;;15.00;10.90;;;20.20;74.30;;;;;;5049488;28;20029;-77
2021/08/12 07:10:20;;;;;;;14.68;10.90;;;20.30;73.60;;;;;;5053783;28;20027;-77
2021/08/12 07:12:45;;;;;;;16.60;11.77;;;20.30;73.50;;;;;;5053270;28;20036;-77
2021/08/12 07:15:11;;;;;;;16.15;12.07;;;20.40;73.70;;;;;;5052655;28;20017;-77
2021/08/12 07:17:37;;;;;;;17.27;12.23;;;20.50;74.00;;;;;;5052331;28;20043;-76
2021/08/12 07:20:04;;;;;;;16.60;12.68;;;20.60;72.60;;;;;;5062230;28;20461;-76
2021/08/12 07:22:30;;;;;;;22.48;11.80;;;20.70;72.70;;;;;;5073629;28;20037;-78
2021/08/12 07:24:55;;;;;;;13.48;8.45;;;20.90;72.60;;;;;;5049535;28;20036;-76
2021/08/12 07:27:21;;;;;;;13.40;9.13;;;20.90;70.70;;;;;;5069485;28;20029;-77
2021/08/12 07:29:46;;;;;;;13.43;10.18;;;20.90;71.10;;;;;;5044843;28;20048;-78
2021/08/12 07:32:12;;;;;;;15.57;10.18;;;21.00;71.10;;;;;;5041385;28;20029;-77
2021/08/12 07:34:38;;;;;;;9.43;6.05;;;21.10;70.30;;;;;;5051084;28;20032;-76
2021/08/12 07:37:06;;;;;;;11.32;8.52;;;21.30;70.10;;;;;;5051630;28;20078;-77
2021/08/12 07:39:32;;;;;;;10.35;7.60;;;21.40;69.40;;;;;;5051149;28;20473;-77
2021/08/12 07:41:57;;;;;;;11.57;8.20;;;21.50;69.70;;;;;;5051976;28;20123;-77
2021/08/12 07:44:23;;;;;;;14.48;10.30;;;21.70;69.60;;;;;;5035291;28;20013;-78
2021/08/12 07:46:49;;;;;;;10.82;7.90;;;22.00;69.40;;;;;;5051797;28;20377;-76
2021/08/12 07:49:14;;;;;;;11.35;7.15;;;22.10;68.50;;;;;;5052734;28;20036;-78
2021/08/12 07:51:40;;;;;;;10.20;7.93;;;22.30;68.30;;;;;;5056254;28;20021;-76
2021/08/12 07:54:06;;;;;;;10.90;7.63;;;22.40;67.70;;;;;;5037671;28;20032;-78
2021/08/12 07:56:31;;;;;;;10.90;5.90;;;22.50;67.50;;;;;;5062484;28;20029;-77
2021/08/12 07:58:57;;;;;;;10.35;7.38;;;22.60;66.30;;;;;;5067754;28;20025;-77
2021/08/12 08:01:22;;;;;;;13.38;8.93;;;22.70;66.60;;;;;;5051381;28;20032;-77
2021/08/12 08:03:48;;;;;;;11.18;6.65;;;22.80;66.30;;;;;;5051046;28;20037;-77
2021/08/12 08:06:14;;;;;;;10.38;7.47;;;22.90;65.50;;;;;;5052621;28;20036;-77
2021/08/12 08:08:40;;;;;;;11.27;8.55;;;22.90;65.70;;;;;;5052277;28;20025;-77
2021/08/12 08:11:06;;;;;;;14.73;8.90;;;23.00;65.20;;;;;;5052439;28;20036;-77
2021/08/12 08:13:32;;;;;;;11.45;7.88;;;23.10;65.30;;;;;;5034298;28;20021;-76
2021/08/12 08:15:59;;;;;;;13.15;8.98;;;23.20;64.70;;;;;;5034280;28;20028;-76
2021/08/12 08:18:26;;;;;;;11.32;7.60;;;23.30;64.30;;;;;;5051133;28;20029;-76
2021/08/12 08:20:52;;;;;;;11.18;7.65;;;23.40;64.10;;;;;;5034317;28;20029;-76
2021/08/12 08:23:18;;;;;;;9.90;6.57;;;23.40;64.00;;;;;;5051251;28;20469;-77
2021/08/12 08:25:44;;;;;;;16.27;11.02;;;23.60;64.30;;;;;;5034510;28;20036;-77
2021/08/12 08:28:11;;;;;;;9.27;5.50;;;23.60;62.70;;;;;;5034829;28;20044;-76
2021/08/12 08:30:37;;;;;;;10.50;6.65;;;23.60;64.00;;;;;;5033988;28;20029;-77
2021/08/12 08:33:04;;;;;;;10.30;5.13;;;23.60;63.50;;;;;;5052130;28;20033;-77
2021/08/12 08:35:30;;;;;;;10.55;7.22;;;23.70;64.10;;;;;;5052188;28;20035;-77
2021/08/12 08:37:57;;;;;;;8.50;5.68;;;23.90;63.10;;;;;;5034527;28;20108;-77
2021/08/12 08:40:23;;;;;;;8.45;5.13;;;24.20;61.90;;;;;;5052463;28;20473;-77
2021/08/12 08:42:58;;;;;;;9.95;5.90;;;24.30;62.50;;;;;;5035057;28;20109;-77
2021/08/12 08:45:26;;;;;;;14.18;8.77;;;24.30;61.80;;;;;;5054452;28;20029;-76
2021/08/12 08:47:53;;;;;;;11.63;8.70;;;24.40;61.60;;;;;;5063621;28;20025;-76
2021/08/12 08:50:21;;;;;;;10.65;6.20;;;24.50;61.60;;;;;;5048409;28;20329;-76
2021/08/12 08:52:48;;;;;;;10.18;5.30;;;24.50;61.50;;;;;;5052603;28;20025;-77
2021/08/12 08:55:20;;;;;;;11.23;6.72;;;24.50;62.10;;;;;;5055936;28;20462;-76
2021/08/12 08:57:49;;;;;;;10.32;7.57;;;24.50;62.30;;;;;;5050764;28;20021;-76
2021/08/12 09:00:16;;;;;;;15.65;10.57;;;24.60;60.80;;;;;;5061560;28;20021;-76
2021/08/12 09:02:43;;;;;;;10.35;6.47;;;24.80;59.20;;;;;;5074061;28;20100;-76
2021/08/12 09:05:09;;;;;;;10.35;7.82;;;24.80;60.20;;;;;;5041878;28;20029;-77
2021/08/12 09:07:38;;;;;;;10.52;6.68;;;24.90;62.10;;;;;;5040003;28;20021;-77
2021/08/12 09:10:04;;;;;;;10.15;7.47;;;24.90;60.90;;;;;;5063636;28;20029;-75
2021/08/12 09:12:31;;;;;;;9.55;6.25;;;25.00;61.10;;;;;;5055685;28;20044;-76
2021/08/12 09:15:23;;;;;;;12.73;8.13;;;25.10;63.10;;;;;;5075960;28;20116;-77
2021/08/12 09:17:51;;;;;;;8.38;6.25;;;25.10;62.80;;;;;;5043336;28;20462;-76
2021/08/12 09:20:19;;;;;;;10.52;6.90;;;25.10;61.20;;;;;;5037565;28;20062;-77
2021/08/12 09:23:02;;;;;;;11.30;7.47;;;25.20;61.00;;;;;;5054929;28;20035;-77
2021/08/12 09:25:33;;;;;;;8.45;5.53;;;25.50;61.20;;;;;;5055111;28;20029;-77
2021/08/12 09:28:21;;;;;;;8.13;5.88;;;25.60;60.00;;;;;;5052709;28;20068;-76
2021/08/12 09:31:05;;;;;;;13.23;9.68;;;25.70;59.60;;;;;;5050521;28;20021;-76
2021/08/12 09:33:35;;;;;;;11.48;6.85;;;25.80;56.60;;;;;;5053864;28;20024;-77
2021/08/12 09:36:01;;;;;;;;;;;25.70;57.60;;;;;;5055448;28;20021;-77
2021/08/12 09:38:28;;;;;;;10.40;5.78;;;25.90;56.90;;;;;;5053983;28;19904;-76
2021/08/12 09:40:55;;;;;;;8.15;4.10;;;26.10;58.80;;;;;;5037248;28;20013;-78
2021/08/12 09:43:22;;;;;;;7.85;4.07;;;26.20;59.60;;;;;;5036920;28;20601;-77
2021/08/12 09:45:48;;;;;;;10.05;6.75;;;26.10;61.70;;;;;;5055256;28;20052;-78
2021/08/12 09:48:22;;;;;;;9.73;5.43;;;26.20;56.60;;;;;;5037176;28;20045;-77
2021/08/12 09:50:58;;;;;;;9.95;6.53;;;26.30;57.80;;;;;;5036676;28;20024;-77
2021/08/12 09:53:24;;;;;;;8.38;4.72;;;26.50;56.30;;;;;;5047678;28;20035;-78
2021/08/12 09:55:51;;;;;;;9.80;4.53;;;26.70;55.20;;;;;;5037394;28;20021;-78
2021/08/12 09:58:18;;;;;;;8.38;4.95;;;26.90;55.40;;;;;;5055256;28;20584;-77
2021/08/12 10:00:49;;;;;;;9.70;5.65;;;27.20;54.70;;;;;;5065035;28;20025;-78
2021/08/12 10:03:36;;;;;;;8.75;3.88;;;27.30;52.30;;;;;;5057236;28;20029;-77
2021/08/12 10:06:03;;;;;;;8.55;5.38;;;27.50;53.90;;;;;;5054668;28;20090;-78
2021/08/12 10:08:39;;;;;;;9.93;5.53;;;27.50;51.20;;;;;;5055217;28;20033;-78
2021/08/12 10:11:30;;;;;;;5.88;3.33;;;27.40;51.40;;;;;;5036802;28;20018;-77
2021/08/12 10:14:04;;;;;;;6.15;3.47;;;27.30;52.10;;;;;;5053109;28;20540;-76
2021/08/12 10:16:34;;;;;;;6.72;3.80;;;27.50;51.90;;;;;;5054186;28;20017;-77
2021/08/12 10:19:01;;;;;;;;;;;27.50;56.20;;;;;;5036662;28;20021;-78
2021/08/12 10:21:28;;;;;;;11.27;5.82;;;27.50;51.70;;;;;;5054448;28;20268;-77
2021/08/12 10:23:59;;;;;;;8.27;4.47;;;27.20;56.00;;;;;;5037824;28;20211;-76
2021/08/12 10:26:30;;;;;;;6.40;3.90;;;26.90;53.30;;;;;;5037890;28;20025;-76
2021/08/12 10:29:10;;;;;;;7.60;4.85;;;26.90;56.10;;;;;;5054720;28;20021;-76
2021/08/12 10:31:44;;;;;;;;;;;27.20;58.30;;;;;;5055282;28;20099;-76
2021/08/12 10:34:11;;;;;;;7.68;4.90;;;27.10;56.70;;;;;;5054493;28;20352;-76
2021/08/12 10:36:38;;;;;;;7.75;5.07;;;27.30;53.70;;;;;;5055399;28;20492;-76
2021/08/12 10:39:05;;;;;;;9.07;5.25;;;27.50;53.40;;;;;;5036059;28;20112;-77
2021/08/12 10:41:34;;;;;;;8.95;5.15;;;27.80;52.80;;;;;;5054317;28;20029;-76
2021/08/12 10:44:00;;;;;;;9.35;3.97;;;27.90;53.30;;;;;;5050946;28;20540;-76
2021/08/12 10:46:40;;;;;;;7.18;4.68;;;27.80;54.80;;;;;;5035752;28;20385;-77
2021/08/12 10:49:29;;;;;;;8.05;4.45;;;27.90;52.70;;;;;;5035644;28;20049;-77
2021/08/12 10:52:04;;;;;;;8.35;4.32;;;27.90;52.10;;;;;;5054978;28;20024;-78
2021/08/12 10:54:36;;;;;;;8.48;4.53;;;28.00;53.40;;;;;;5065573;28;20048;-77
2021/08/12 10:57:25;;;;;;;10.02;5.80;;;28.20;54.60;;;;;;5061855;28;20017;-77
2021/08/12 10:59:52;;;;;;;8.85;5.18;;;28.40;54.60;;;;;;5045153;28;20025;-77
2021/08/12 11:02:27;;;;;;;8.10;6.00;;;28.70;52.20;;;;;;5068085;28;20043;-76
2021/08/12 11:04:54;;;;;;;11.65;7.72;;;28.90;49.70;;;;;;5074086;28;20032;-76
2021/08/12 11:07:38;;;;;;;11.10;6.78;;;28.90;51.30;;;;;;5064024;28;20088;-76
2021/08/12 11:10:12;;;;;;;9.90;6.15;;;29.10;49.20;;;;;;5053800;28;20488;-77
2021/08/12 11:12:53;;;;;;;9.10;4.78;;;29.20;51.10;;;;;;5052898;28;20064;-77
2021/08/12 11:15:36;;;;;;;8.48;4.88;;;29.20;51.00;;;;;;5053257;28;20158;-77
2021/08/12 11:18:03;;;;;;;7.38;4.28;;;29.40;53.00;;;;;;5050464;28;20110;-77
2021/08/12 11:20:34;;;;;;;10.48;5.93;;;29.60;51.90;;;;;;5053096;28;20061;-76
2021/08/12 11:23:32;;;;;;;8.52;4.70;;;29.70;54.50;;;;;;5035290;28;20083;-77
2021/08/12 11:26:02;;;;;;;8.18;3.78;;;29.70;49.60;;;;;;5022353;28;20956;-77
2021/08/12 11:28:40;;;;;;;8.20;3.25;;;29.70;51.30;;;;;;5068020;28;20053;-78
2021/08/12 11:31:27;;;;;;;5.70;3.72;;;29.50;53.60;;;;;;5057070;28;20122;-78
2021/08/12 11:34:01;;;;;;;5.97;3.58;;;29.30;50.10;;;;;;5012716;28;20489;-78
2021/08/12 11:36:38;;;;;;;5.57;3.58;;;29.20;51.80;;;;;;5053084;28;20096;-78
2021/08/12 11:39:04;;;;;;;5.40;2.88;;;29.20;54.80;;;;;;5052838;28;20381;-78
2021/08/12 11:41:38;;;;;;;8.13;4.45;;;29.20;54.40;;;;;;5053276;28;20100;-77
2021/08/12 11:44:11;;;;;;;7.55;4.22;;;29.40;49.40;;;;;;5034644;28;20032;-77
2021/08/12 11:46:38;;;;;;;6.15;3.20;;;29.40;48.90;;;;;;5035335;28;20088;-77
2021/08/12 11:49:05;;;;;;;6.13;3.97;;;29.60;49.40;;;;;;5052821;28;20036;-77
2021/08/12 11:51:33;;;;;;;7.95;4.60;;;29.90;53.00;;;;;;5035317;28;20033;-77
2021/08/12 11:53:58;;;;;;;7.53;4.13;;;30.00;48.30;;;;;;5053323;28;20053;-77
2021/08/12 11:56:27;;;;;;;6.05;3.78;;;29.90;52.10;;;;;;5053474;28;20130;-77
2021/08/12 11:58:57;;;;;;;7.97;4.47;;;29.90;49.80;;;;;;5035430;28;20111;-78
2021/08/12 12:01:25;;;;;;;7.05;3.75;;;29.90;49.30;;;;;;5035796;28;20021;-77
2021/08/12 12:04:08;;;;;;;6.63;3.92;;;29.70;53.90;;;;;;5042247;28;20093;-77
2021/08/12 12:06:39;;;;;;;8.05;4.05;;;29.40;50.50;;;;;;5061417;28;20033;-77
2021/08/12 12:09:25;;;;;;;6.00;3.25;;;29.20;50.70;;;;;;5052540;28;20029;-77
2021/08/12 12:12:00;;;;;;;6.93;3.88;;;29.20;51.60;;;;;;5034784;28;20025;-77
2021/08/12 12:14:28;;;;;;;6.97;4.65;;;29.30;52.80;;;;;;5051684;28;20021;-77
2021/08/12 12:17:17;;;;;;;6.18;3.67;;;29.40;52.90;;;;;;5053075;28;20096;-76
2021/08/12 12:20:09;;;;;;;7.93;3.80;;;29.60;51.80;;;;;;5052294;28;20017;-76
2021/08/12 12:22:36;;;;;;;5.55;3.47;;;30.10;52.00;;;;;;5034828;28;20128;-77
2021/08/12 12:25:04;;;;;;;7.10;4.40;;;30.30;53.90;;;;;;5052170;28;20036;-77
2021/08/12 12:27:30;;;;;;;8.27;5.25;;;30.30;49.20;;;;;;5052433;28;20022;-77
2021/08/12 12:30:23;;;;;;;6.70;4.20;;;30.20;49.00;;;;;;5038669;28;20028;-77
2021/08/12 12:32:57;;;;;;;6.68;3.90;;;29.90;50.80;;;;;;5052658;28;20062;-76
2021/08/12 12:35:24;;;;;;;8.38;4.82;;;29.70;53.80;;;;;;5038091;28;20060;-77
2021/08/12 12:37:50;;;;;;;6.75;4.55;;;29.70;51.60;;;;;;5056410;28;20036;-77
2021/08/12 12:40:19;;;;;;;7.43;3.92;;;29.70;50.10;;;;;;5040676;28;20119;-77
2021/08/12 12:42:45;;;;;;;5.75;3.65;;;29.60;54.30;;;;;;5063928;28;20043;-77
2021/08/12 12:45:13;;;;;;;9.02;4.28;;;29.50;53.30;;;;;;5067441;28;20017;-76